createdAt,value
2023-07-18T00:01:15.741Z,55.46
2023-07-18T00:06:26.369Z,55.55
2023-07-18T00:11:32.599Z,55.75
2023-07-18T00:16:38.873Z,55.96
2023-07-18T00:21:45.149Z,56.33
2023-07-18T00:26:50.623Z,56.72
2023-07-18T00:31:56.253Z,56.98
2023-07-18T00:37:03.469Z,57.12
2023-07-18T00:42:10.346Z,57.29
2023-07-18T00:47:17.063Z,57.23
2023-07-18T00:52:23.635Z,57.31
2023-07-18T00:57:30.103Z,57.17
2023-07-18T01:02:36.202Z,57.11
2023-07-18T01:07:44.474Z,57.04
2023-07-18T01:12:50.388Z,57.00
2023-07-18T01:17:56.674Z,57.14
2023-07-18T01:23:05.660Z,57.40
2023-07-18T01:28:13.840Z,57.39
2023-07-18T01:33:19.935Z,57.46
2023-07-18T01:38:31.241Z,57.54
2023-07-18T01:43:37.670Z,57.70
2023-07-18T01:48:44.079Z,57.88
2023-07-18T01:53:51.081Z,58.02
2023-07-18T01:58:57.871Z,58.15
2023-07-18T02:04:07.164Z,58.46
2023-07-18T02:09:14.286Z,58.69
2023-07-18T02:14:21.725Z,58.87
2023-07-18T02:19:27.260Z,59.08
2023-07-18T02:24:32.943Z,59.35
2023-07-18T02:29:39.572Z,59.54
2023-07-18T02:34:46.247Z,59.70
2023-07-18T02:39:52.807Z,59.82
2023-07-18T02:44:59.992Z,60.00
2023-07-18T02:50:06.727Z,60.22
2023-07-18T02:55:13.342Z,60.43
2023-07-18T03:00:27.594Z,60.59
2023-07-18T03:05:34.742Z,60.75
2023-07-18T03:10:43.515Z,60.88
2023-07-18T03:15:49.097Z,61.01
2023-07-18T03:20:55.567Z,61.22
2023-07-18T03:26:02.792Z,61.64
2023-07-18T03:31:09.485Z,61.82
2023-07-18T03:38:33.397Z,61.89
2023-07-18T03:44:09.983Z,62.14
2023-07-18T03:49:16.321Z,62.15
2023-07-18T03:54:22.844Z,62.32
2023-07-18T03:59:29.969Z,62.49
2023-07-18T04:04:36.332Z,62.84
2023-07-18T04:09:42.787Z,63.00
2023-07-18T04:14:49.811Z,63.25
2023-07-18T04:20:00.722Z,63.51
2023-07-18T04:25:08.075Z,63.60
2023-07-18T04:30:15.497Z,63.69
2023-07-18T04:35:21.535Z,63.61
2023-07-18T04:40:27.073Z,63.60
2023-07-18T04:45:33.362Z,63.44
2023-07-18T04:50:40.144Z,63.47
2023-07-18T04:55:47.137Z,63.34
2023-07-18T05:00:55.786Z,63.29
2023-07-18T05:06:02.215Z,63.18
2023-07-18T05:11:07.684Z,63.24
2023-07-18T05:16:13.761Z,63.31
2023-07-18T05:21:19.845Z,63.15
2023-07-18T05:26:26.331Z,62.95
2023-07-18T05:31:32.277Z,62.78
2023-07-18T05:36:37.936Z,62.80
2023-07-18T05:41:43.664Z,62.80
2023-07-18T05:46:49.482Z,62.69
2023-07-18T05:51:55.196Z,62.63
2023-07-18T05:57:01.157Z,62.55
2023-07-18T06:02:07.017Z,62.44
2023-07-18T06:07:13.653Z,62.30
2023-07-18T06:12:19.252Z,62.12
2023-07-18T06:17:25.377Z,61.79
2023-07-18T06:22:32.179Z,61.36
2023-07-18T06:27:37.911Z,61.06
2023-07-18T06:32:44.375Z,60.87
2023-07-18T06:37:51.476Z,60.66
2023-07-18T06:42:58.606Z,60.45
2023-07-18T06:48:04.739Z,60.32
2023-07-18T06:53:11.382Z,60.25
2023-07-18T06:58:18.169Z,60.04
2023-07-18T07:03:24.576Z,59.87
2023-07-18T07:08:31.148Z,59.64
2023-07-18T07:13:38.403Z,59.39
2023-07-18T07:18:45.686Z,59.24
2023-07-18T07:23:53.723Z,59.10
2023-07-18T07:29:00.794Z,58.92
2023-07-18T07:34:06.874Z,58.78
2023-07-18T07:39:17.264Z,58.65
2023-07-18T07:44:23.012Z,58.52
2023-07-18T07:49:28.827Z,58.49
2023-07-18T07:54:34.824Z,58.47
2023-07-18T07:59:40.548Z,58.30
2023-07-18T08:04:47.135Z,58.05
2023-07-18T08:09:53.459Z,57.78
2023-07-18T08:15:00.530Z,57.70
2023-07-18T08:20:07.957Z,57.63
2023-07-18T08:25:13.767Z,57.44
2023-07-18T08:30:21.453Z,57.34
2023-07-18T08:35:27.772Z,57.08
2023-07-18T08:40:34.473Z,56.69
2023-07-18T08:45:40.627Z,56.26
2023-07-18T08:50:47.237Z,55.83
2023-07-18T08:55:53.977Z,55.57
2023-07-18T09:01:01.246Z,55.21
2023-07-18T09:06:19.200Z,55.02
2023-07-18T09:11:26.171Z,54.73
2023-07-18T09:16:31.952Z,54.52
2023-07-18T09:21:38.810Z,54.65
2023-07-18T09:26:45.432Z,54.50
2023-07-18T09:31:53.125Z,54.08
2023-07-18T09:37:00.362Z,53.86
2023-07-18T09:42:10.762Z,53.84
2023-07-18T09:47:19.555Z,53.51
2023-07-18T09:52:29.894Z,53.12
2023-07-18T09:57:37.377Z,52.91
2023-07-18T10:02:44.159Z,52.89
2023-07-18T10:07:51.305Z,53.00
2023-07-18T10:13:04.548Z,52.89
2023-07-18T10:18:24.261Z,52.84
2023-07-18T10:23:45.532Z,52.84
2023-07-18T10:28:51.929Z,52.92
2023-07-18T10:34:11.711Z,52.95
2023-07-18T10:39:18.210Z,52.87
2023-07-18T10:44:24.575Z,52.72
2023-07-18T10:49:31.537Z,52.60
2023-07-18T10:54:38.303Z,52.52
2023-07-18T10:59:46.495Z,52.36
2023-07-18T11:04:53.812Z,52.08
2023-07-18T11:09:59.895Z,51.75
2023-07-18T11:15:07.740Z,51.50
2023-07-18T11:20:15.339Z,51.37
2023-07-18T11:25:22.044Z,51.24
2023-07-18T11:30:27.707Z,51.12
2023-07-18T11:35:33.361Z,51.01
2023-07-18T11:40:40.043Z,50.61
2023-07-18T11:45:48.041Z,50.15
2023-07-18T11:50:54.964Z,50.26
2023-07-18T11:56:01.170Z,50.46
2023-07-18T12:01:07.283Z,50.36
2023-07-18T12:06:13.111Z,49.79
2023-07-18T12:11:19.881Z,49.53
2023-07-18T12:16:26.537Z,49.22
2023-07-18T12:21:32.032Z,48.34
2023-07-18T12:26:38.936Z,47.91
2023-07-18T12:31:51.192Z,47.52
2023-07-18T12:36:57.942Z,47.24
2023-07-18T12:42:04.359Z,47.00
2023-07-18T12:47:11.423Z,47.55
2023-07-18T12:52:17.800Z,47.97
2023-07-18T12:57:24.226Z,48.29
2023-07-18T13:02:30.611Z,48.60
2023-07-18T13:07:38.166Z,48.84
2023-07-18T13:12:45.211Z,49.02
2023-07-18T13:17:50.795Z,49.14
2023-07-18T13:22:57.450Z,49.24
2023-07-18T13:28:04.205Z,49.25
2023-07-18T13:33:10.680Z,48.75
2023-07-18T13:38:17.052Z,48.39
2023-07-18T13:43:23.036Z,48.33
2023-07-18T13:48:28.658Z,48.23
2023-07-18T13:53:35.131Z,47.90
2023-07-18T13:58:41.438Z,48.13
2023-07-18T14:03:47.348Z,48.84
2023-07-18T14:08:54.327Z,49.80
2023-07-18T14:14:01.142Z,50.68
2023-07-18T14:19:07.975Z,51.43
2023-07-18T14:24:15.037Z,51.89
2023-07-18T14:29:21.992Z,52.22
2023-07-18T14:34:28.374Z,52.34
2023-07-18T14:39:37.279Z,52.47
2023-07-18T14:44:43.553Z,52.57
2023-07-18T14:49:49.616Z,52.68
2023-07-18T14:54:58.673Z,52.72
2023-07-18T15:00:06.707Z,52.75
2023-07-18T15:05:13.315Z,52.73
2023-07-18T15:10:20.113Z,52.75
2023-07-18T15:15:26.382Z,52.72
2023-07-18T15:20:32.718Z,52.74
2023-07-18T15:25:39.842Z,52.76
2023-07-18T15:30:47.108Z,52.77
2023-07-18T15:35:52.736Z,52.76
2023-07-18T15:40:58.892Z,52.76
2023-07-18T15:46:06.065Z,52.79
2023-07-18T15:51:13.363Z,52.82
2023-07-18T15:56:20.319Z,52.67
2023-07-18T16:01:27.374Z,52.45
2023-07-18T16:06:34.587Z,52.30
2023-07-18T16:11:41.418Z,52.03
2023-07-18T16:16:47.768Z,51.80
2023-07-18T16:21:54.828Z,51.52
2023-07-18T16:27:02.116Z,51.41
2023-07-18T16:32:10.414Z,51.57
2023-07-18T16:37:16.709Z,51.78
2023-07-18T16:42:24.694Z,51.99
2023-07-18T16:47:31.756Z,52.18
2023-07-18T16:52:38.878Z,52.32
2023-07-18T16:57:45.097Z,52.41
2023-07-18T17:02:51.866Z,52.46
2023-07-18T17:07:58.145Z,52.54
2023-07-18T17:13:04.611Z,52.59
2023-07-18T17:18:10.942Z,52.59
2023-07-18T17:23:16.604Z,52.54
2023-07-18T17:28:22.931Z,52.50
2023-07-18T17:33:29.837Z,52.47
2023-07-18T17:38:36.136Z,52.46
2023-07-18T17:43:43.250Z,52.44
2023-07-18T17:48:49.928Z,52.43
2023-07-18T17:53:56.636Z,52.47
2023-07-18T17:59:02.494Z,52.54
2023-07-18T18:04:09.186Z,52.59
2023-07-18T18:09:15.504Z,52.68
2023-07-18T18:14:21.718Z,52.79
2023-07-18T18:19:28.046Z,52.92
2023-07-18T18:24:33.885Z,53.07
2023-07-18T18:29:40.392Z,53.20
2023-07-18T18:35:00.967Z,53.39
2023-07-18T18:40:13.309Z,53.58
2023-07-18T18:45:19.254Z,53.78
2023-07-18T18:50:25.013Z,54.00
2023-07-18T18:55:33.769Z,54.21
2023-07-18T19:00:40.641Z,54.38
2023-07-18T19:05:46.535Z,54.53
2023-07-18T19:11:05.166Z,54.68
2023-07-18T19:16:21.628Z,54.92
2023-07-18T19:21:35.565Z,55.11
2023-07-18T19:26:41.254Z,55.20
2023-07-18T19:31:47.234Z,55.35
2023-07-18T19:36:53.881Z,55.48
2023-07-18T19:41:59.742Z,55.46
2023-07-18T19:47:05.901Z,55.38
2023-07-18T19:52:12.279Z,55.32
2023-07-18T19:57:18.037Z,55.45
2023-07-18T20:02:23.900Z,55.73
2023-07-18T20:07:30.193Z,56.00
2023-07-18T20:12:35.952Z,56.31
2023-07-18T20:17:42.203Z,56.50
2023-07-18T20:22:47.961Z,56.59
2023-07-18T20:27:54.290Z,56.56
2023-07-18T20:33:03.524Z,56.61
2023-07-18T20:38:10.509Z,56.83
2023-07-18T20:43:16.679Z,57.14
2023-07-18T20:48:22.226Z,57.13
2023-07-18T20:53:29.009Z,57.05
2023-07-18T20:58:34.754Z,56.97
2023-07-18T21:03:40.503Z,56.94
2023-07-18T21:08:47.511Z,57.10
2023-07-18T21:13:53.137Z,57.52
2023-07-18T21:18:58.744Z,57.53
2023-07-18T21:24:04.943Z,57.49
2023-07-18T21:29:10.583Z,57.60
2023-07-18T21:34:16.140Z,57.75
2023-07-18T21:39:22.115Z,58.00
2023-07-18T21:44:27.926Z,58.41
2023-07-18T21:49:33.574Z,58.80
2023-07-18T21:54:39.354Z,58.98
2023-07-18T21:59:45.357Z,59.00
2023-07-18T22:04:51.156Z,58.96
2023-07-18T22:09:57.525Z,58.92
2023-07-18T22:15:03.524Z,58.90
2023-07-18T22:20:10.211Z,58.90
2023-07-18T22:25:15.779Z,58.93
2023-07-18T22:30:21.350Z,58.92
2023-07-18T22:35:26.862Z,58.95
2023-07-18T22:40:32.735Z,59.08
2023-07-18T22:45:38.373Z,59.22
2023-07-18T22:50:43.805Z,59.33
2023-07-18T22:55:50.531Z,59.41
2023-07-18T23:00:56.383Z,59.52
2023-07-18T23:06:02.274Z,59.67
2023-07-18T23:11:07.657Z,59.70
2023-07-18T23:16:13.400Z,59.77
2023-07-18T23:21:19.554Z,59.93
2023-07-18T23:26:25.615Z,60.13
2023-07-18T23:31:31.220Z,60.32
2023-07-18T23:36:36.901Z,60.44
2023-07-18T23:41:42.893Z,60.48
2023-07-18T23:46:48.657Z,60.50
2023-07-18T23:51:54.577Z,60.48
2023-07-18T23:57:00.380Z,60.56
